Time;durP1;ratioP1;P1;durP2;ratioP2;P2;SDS_P1;SDS_P2;PMS_P1;PMS_P2;Temp;Humidity;BMP_temperature;BMP_pressure;BME280_temperature;BME280_humidity;BME280_pressure;Samples;Min_cycle;Max_cycle;Signal;HPM_P1;HPM_P2
2020/12/22 00:01:13;;;;;;;3.45;1.98;;;13.50;88.40;;;;;;5005976;28;20350;-73
2020/12/22 00:03:42;;;;;;;3.33;1.45;;;13.50;88.40;;;;;;5006248;28;20026;-74
2020/12/22 00:06:08;;;;;;;3.67;1.92;;;13.50;88.40;;;;;;5006647;28;20041;-73
2020/12/22 00:08:35;;;;;;;3.30;1.60;;;13.50;88.40;;;;;;5004444;28;20382;-74
2020/12/22 00:11:01;;;;;;;1.92;1.42;;;13.50;88.40;;;;;;5005286;28;20064;-74
2020/12/22 00:13:27;;;;;;;2.22;1.55;;;13.50;88.40;;;;;;5004347;28;20145;-74
2020/12/22 00:15:53;;;;;;;3.65;1.45;;;13.50;88.40;;;;;;5005121;28;20040;-74
2020/12/22 00:18:19;;;;;;;2.97;1.75;;;13.50;88.40;;;;;;5005002;28;20029;-74
2020/12/22 00:20:45;;;;;;;1.67;1.42;;;13.50;88.40;;;;;;4988721;28;20038;-74
2020/12/22 00:23:11;;;;;;;1.55;1.30;;;13.50;88.40;;;;;;5006044;28;20152;-74
2020/12/22 00:25:45;;;;;;;2.78;1.58;;;13.50;88.40;;;;;;4988835;28;20030;-74
2020/12/22 00:28:13;;;;;;;1.35;1.17;;;13.50;88.40;;;;;;5004784;28;20430;-75
2020/12/22 00:30:39;;;;;;;2.70;1.30;;;13.50;88.40;;;;;;5004846;28;20438;-75
2020/12/22 00:33:05;;;;;;;2.47;1.50;;;13.50;88.40;;;;;;5004686;28;20022;-74
2020/12/22 00:35:31;;;;;;;1.58;1.27;;;13.50;88.40;;;;;;4988206;28;20046;-74
2020/12/22 00:37:58;;;;;;;3.83;1.80;;;13.50;88.40;;;;;;5004733;28;20136;-74
2020/12/22 00:40:24;;;;;;;3.60;1.58;;;13.40;88.70;;;;;;5004555;28;20485;-74
2020/12/22 00:42:51;;;;;;;6.25;1.70;;;13.50;88.40;;;;;;5005975;28;20057;-74
2020/12/22 00:45:18;;;;;;;2.08;1.42;;;13.40;88.20;;;;;;5006086;28;20037;-73
2020/12/22 00:47:44;;;;;;;2.65;1.50;;;13.40;88.20;;;;;;4981787;28;682615;-74
2020/12/22 00:50:10;;;;;;;3.22;1.30;;;13.40;88.20;;;;;;5005280;28;20030;-73
2020/12/22 00:52:36;;;;;;;2.03;1.30;;;13.40;88.20;;;;;;5005131;28;20033;-75
2020/12/22 00:55:04;;;;;;;2.08;1.30;;;13.40;88.20;;;;;;4989168;28;20045;-73
2020/12/22 00:57:32;;;;;;;3.58;1.58;;;13.40;88.20;;;;;;5005111;28;20034;-74
2020/12/22 01:00:11;;;;;;;3.58;1.50;;;13.40;88.20;;;;;;5005347;28;20040;-74
2020/12/22 01:02:38;;;;;;;5.15;1.58;;;13.40;88.20;;;;;;5005457;28;20440;-74
2020/12/22 01:05:04;;;;;;;3.00;1.65;;;13.40;88.20;;;;;;5005171;28;20132;-74
2020/12/22 01:07:30;;;;;;;3.40;1.40;;;13.40;88.20;;;;;;4988476;28;20076;-74
2020/12/22 01:09:56;;;;;;;4.50;1.75;;;13.40;88.20;;;;;;5004783;28;20030;-74
2020/12/22 01:12:22;;;;;;;4.50;1.38;;;13.40;88.20;;;;;;4988738;28;20201;-74
2020/12/22 01:14:48;;;;;;;3.58;1.52;;;13.40;88.20;;;;;;5005087;28;20366;-74
2020/12/22 01:17:14;;;;;;;1.75;1.60;;;13.40;88.20;;;;;;5004638;28;20127;-74
2020/12/22 01:19:39;;;;;;;3.70;1.98;;;13.40;88.20;;;;;;5004593;28;20049;-74
2020/12/22 01:22:05;;;;;;;2.45;1.48;;;13.40;88.20;;;;;;4988776;28;20334;-74
2020/12/22 01:24:31;;;;;;;4.50;1.55;;;13.30;88.00;;;;;;5006330;28;20026;-75
2020/12/22 01:26:57;;;;;;;2.38;1.52;;;13.30;88.10;;;;;;5005917;28;20052;-74
2020/12/22 01:29:23;;;;;;;3.47;1.73;;;13.30;88.10;;;;;;5005909;28;20148;-76
2020/12/22 01:31:49;;;;;;;3.08;1.67;;;13.30;88.00;;;;;;5004986;28;20092;-74
2020/12/22 01:34:16;;;;;;;3.92;1.55;;;13.30;88.00;;;;;;5004708;28;20030;-74
2020/12/22 01:36:42;;;;;;;5.60;1.50;;;13.30;88.00;;;;;;4988536;28;20110;-74
2020/12/22 01:39:08;;;;;;;4.07;1.60;;;13.30;88.00;;;;;;4988088;28;20133;-74
2020/12/22 01:41:35;;;;;;;3.33;1.42;;;13.30;88.10;;;;;;5004579;28;20030;-74
2020/12/22 01:44:08;;;;;;;3.90;1.67;;;13.30;88.10;;;;;;4988172;28;20172;-74
2020/12/22 01:46:45;;;;;;;4.75;1.70;;;13.30;88.10;;;;;;4988785;28;20042;-74
2020/12/22 01:49:19;;;;;;;5.57;1.65;;;13.30;88.10;;;;;;5004476;28;20050;-74
2020/12/22 01:51:46;;;;;;;7.20;1.88;;;13.30;88.60;;;;;;5006318;28;20034;-74
2020/12/22 01:54:14;;;;;;;5.10;1.90;;;13.20;87.90;;;;;;5006085;28;20037;-74
2020/12/22 01:56:40;;;;;;;4.72;2.13;;;13.30;88.10;;;;;;5005625;28;20033;-75
2020/12/22 01:59:06;;;;;;;3.47;1.77;;;13.20;87.90;;;;;;5005878;28;20042;-73
2020/12/22 02:01:33;;;;;;;7.32;2.10;;;13.20;87.90;;;;;;5006078;28;20342;-73
2020/12/22 02:04:00;;;;;;;2.85;1.65;;;13.20;87.90;;;;;;5005827;28;20026;-73
2020/12/22 02:06:31;;;;;;;6.63;1.92;;;13.20;87.80;;;;;;5006110;28;20037;-74
2020/12/22 02:08:58;;;;;;;4.55;1.77;;;13.20;87.90;;;;;;5005045;28;20503;-72
2020/12/22 02:11:25;;;;;;;4.35;1.95;;;13.10;87.70;;;;;;5004378;28;20022;-74
2020/12/22 02:13:52;;;;;;;6.20;1.95;;;13.10;87.70;;;;;;5006015;28;20136;-74
2020/12/22 02:16:19;;;;;;;4.88;2.33;;;13.10;87.70;;;;;;5004150;28;20030;-74
2020/12/22 02:18:47;;;;;;;4.68;1.70;;;13.10;87.80;;;;;;4988302;28;20042;-74
2020/12/22 02:21:13;;;;;;;3.22;1.65;;;13.10;87.80;;;;;;5009397;28;20571;-74
2020/12/22 02:23:39;;;;;;;7.90;2.28;;;13.10;87.80;;;;;;4991590;28;20442;-74
2020/12/22 02:26:05;;;;;;;4.68;1.70;;;13.10;87.80;;;;;;5009444;28;20415;-73
2020/12/22 02:28:33;;;;;;;4.50;2.15;;;13.10;87.80;;;;;;5007612;28;20038;-74
2020/12/22 02:31:03;;;;;;;3.97;1.80;;;13.10;87.80;;;;;;5009247;28;20192;-74
2020/12/22 02:33:29;;;;;;;4.32;1.60;;;13.00;87.60;;;;;;5007911;28;20034;-74
2020/12/22 02:35:55;;;;;;;3.78;1.90;;;13.10;87.80;;;;;;5009089;28;20497;-73
2020/12/22 02:38:22;;;;;;;3.40;1.63;;;13.00;87.60;;;;;;5008833;28;20366;-73
2020/12/22 02:40:48;;;;;;;2.50;1.42;;;13.00;87.60;;;;;;5007698;28;20453;-74
2020/12/22 02:43:14;;;;;;;7.28;2.55;;;13.00;87.60;;;;;;4991389;28;20034;-74
2020/12/22 02:45:44;;;;;;;6.05;2.42;;;13.00;87.70;;;;;;5009232;28;20030;-74
2020/12/22 02:48:13;;;;;;;4.78;2.22;;;13.00;87.60;;;;;;5012493;28;20073;-75
2020/12/22 02:50:39;;;;;;;6.07;2.17;;;13.00;87.60;;;;;;5010865;28;20034;-74
2020/12/22 02:53:06;;;;;;;6.28;1.90;;;13.00;87.70;;;;;;5010885;28;20136;-73
2020/12/22 02:55:33;;;;;;;6.13;2.00;;;13.00;87.70;;;;;;4994629;28;20030;-74
2020/12/22 02:57:59;;;;;;;4.65;2.00;;;12.90;87.50;;;;;;5010861;28;20030;-74
2020/12/22 03:00:25;;;;;;;5.07;2.15;;;12.90;87.50;;;;;;5012246;28;20034;-74
2020/12/22 03:02:51;;;;;;;10.80;2.15;;;12.90;87.50;;;;;;4994650;28;20036;-74
2020/12/22 03:05:18;;;;;;;6.03;2.20;;;12.90;87.50;;;;;;5010564;28;20034;-74
2020/12/22 03:07:44;;;;;;;6.20;2.10;;;12.90;87.50;;;;;;5012081;28;20026;-74
2020/12/22 03:10:12;;;;;;;6.97;2.15;;;12.90;87.50;;;;;;5010663;28;20117;-74
2020/12/22 03:12:39;;;;;;;5.25;2.47;;;12.90;87.50;;;;;;5010522;28;20089;-74
2020/12/22 03:15:07;;;;;;;6.43;2.13;;;12.90;87.50;;;;;;5012273;28;20105;-73
2020/12/22 03:17:34;;;;;;;6.88;2.17;;;12.80;87.40;;;;;;5010141;28;20026;-74
2020/12/22 03:20:00;;;;;;;6.10;2.53;;;12.80;87.40;;;;;;5010328;28;20073;-74
2020/12/22 03:22:26;;;;;;;4.53;2.00;;;12.80;87.40;;;;;;5011529;28;20030;-74
2020/12/22 03:24:52;;;;;;;6.78;2.70;;;12.80;87.30;;;;;;5010150;28;20366;-74
2020/12/22 03:27:18;;;;;;;6.85;2.47;;;12.80;87.40;;;;;;4994042;28;20050;-74
2020/12/22 03:29:44;;;;;;;7.07;2.45;;;12.70;87.20;;;;;;4993743;28;20029;-73
2020/12/22 03:32:10;;;;;;;10.45;2.97;;;12.70;87.20;;;;;;5008862;28;20452;-72
2020/12/22 03:34:36;;;;;;;5.47;2.30;;;12.70;87.20;;;;;;5011321;28;20590;-72
2020/12/22 03:37:02;;;;;;;7.55;2.13;;;12.60;87.00;;;;;;5010000;28;20030;-72
2020/12/22 03:39:28;;;;;;;2.38;1.50;;;12.60;87.10;;;;;;5011608;28;20168;-73
2020/12/22 03:41:54;;;;;;;3.53;2.05;;;12.60;87.10;;;;;;5012339;28;20032;-74
2020/12/22 03:44:20;;;;;;;4.50;2.28;;;12.60;87.10;;;;;;5012540;28;20358;-74
2020/12/22 03:46:49;;;;;;;5.90;2.42;;;12.60;87.20;;;;;;5010063;28;20034;-74
2020/12/22 03:49:18;;;;;;;5.45;2.47;;;12.50;87.00;;;;;;5010066;28;20188;-74
2020/12/22 03:51:45;;;;;;;11.60;2.97;;;12.50;87.10;;;;;;5011391;28;20374;-74
2020/12/22 03:54:12;;;;;;;5.75;2.25;;;12.50;87.10;;;;;;5009899;28;20034;-74
2020/12/22 03:56:39;;;;;;;6.50;2.15;;;12.50;87.10;;;;;;5010793;28;20041;-73
2020/12/22 03:59:05;;;;;;;9.85;2.67;;;12.40;86.90;;;;;;5010667;28;20034;-73
2020/12/22 04:01:31;;;;;;;3.47;1.70;;;12.50;87.20;;;;;;5009642;28;20030;-72
2020/12/22 04:03:58;;;;;;;5.00;2.08;;;12.40;87.00;;;;;;5009664;28;20034;-73
2020/12/22 04:06:24;;;;;;;9.52;2.38;;;12.40;87.00;;;;;;5011041;28;20037;-73
2020/12/22 04:08:52;;;;;;;4.63;2.17;;;12.40;87.10;;;;;;5009352;28;20042;-74
2020/12/22 04:11:19;;;;;;;6.35;2.15;;;12.30;86.90;;;;;;5010343;28;20441;-74
2020/12/22 04:13:45;;;;;;;5.20;1.50;;;12.30;87.00;;;;;;5011230;28;20030;-73
2020/12/22 04:16:11;;;;;;;4.68;2.13;;;12.30;87.00;;;;;;5010160;28;20072;-74
2020/12/22 04:18:37;;;;;;;3.80;1.98;;;12.30;87.10;;;;;;5009077;28;20034;-74
2020/12/22 04:21:03;;;;;;;6.43;2.30;;;12.20;86.90;;;;;;5009444;28;20390;-73
2020/12/22 04:23:29;;;;;;;5.47;2.72;;;12.30;87.20;;;;;;5010556;28;20028;-73
2020/12/22 04:25:55;;;;;;;3.92;2.35;;;12.20;87.00;;;;;;5010290;28;20026;-73
2020/12/22 04:28:21;;;;;;;6.13;1.77;;;12.30;87.20;;;;;;5009241;28;20036;-73
2020/12/22 04:30:47;;;;;;;7.28;2.45;;;12.20;87.10;;;;;;5008849;28;20037;-73
2020/12/22 04:33:14;;;;;;;6.35;2.20;;;12.20;87.20;;;;;;5010058;28;20022;-74
2020/12/22 04:35:41;;;;;;;8.18;2.67;;;12.20;87.20;;;;;;5008726;28;20540;-74
2020/12/22 04:38:07;;;;;;;6.15;2.35;;;12.20;87.20;;;;;;5009970;28;20481;-73
2020/12/22 04:40:34;;;;;;;7.57;2.22;;;12.20;87.20;;;;;;5009068;28;20132;-74
2020/12/22 04:43:01;;;;;;;5.72;2.22;;;12.10;87.10;;;;;;5008215;28;20045;-73
2020/12/22 04:45:28;;;;;;;3.10;2.40;;;12.10;87.10;;;;;;5008820;28;20069;-73
2020/12/22 04:47:55;;;;;;;4.38;2.30;;;12.10;87.60;;;;;;5009746;28;20053;-73
2020/12/22 04:50:21;;;;;;;6.60;2.53;;;12.10;87.20;;;;;;5009849;28;20049;-73
2020/12/22 04:52:48;;;;;;;3.88;1.77;;;12.10;87.20;;;;;;5008717;28;20033;-75
2020/12/22 04:55:14;;;;;;;7.40;2.60;;;12.10;87.20;;;;;;5008469;28;20404;-74
2020/12/22 04:57:51;;;;;;;5.80;2.00;;;12.10;87.30;;;;;;5009622;28;20072;-74
2020/12/22 05:00:18;;;;;;;5.45;2.30;;;12.10;87.30;;;;;;5008214;28;20100;-73
2020/12/22 05:02:44;;;;;;;7.57;2.38;;;12.00;87.10;;;;;;5009934;28;20030;-73
2020/12/22 05:05:12;;;;;;;4.50;2.25;;;12.00;87.10;;;;;;5009867;28;20041;-73
2020/12/22 05:07:39;;;;;;;4.60;2.17;;;12.10;87.40;;;;;;5008192;28;20108;-73
2020/12/22 05:10:10;;;;;;;4.63;2.28;;;12.00;87.20;;;;;;5008256;28;20050;-73
2020/12/22 05:12:38;;;;;;;4.72;2.33;;;12.00;87.20;;;;;;5008201;28;20405;-73
2020/12/22 05:15:06;;;;;;;6.03;2.50;;;12.10;87.40;;;;;;5009683;28;20037;-72
2020/12/22 05:17:43;;;;;;;4.70;2.42;;;12.00;87.30;;;;;;5008937;28;20065;-74
2020/12/22 05:20:13;;;;;;;7.40;2.53;;;12.00;87.80;;;;;;5008323;28;20481;-73
2020/12/22 05:22:46;;;;;;;3.92;2.05;;;12.00;87.30;;;;;;5007677;28;20057;-73
2020/12/22 05:25:16;;;;;;;3.47;2.10;;;12.10;87.50;;;;;;5008311;28;20434;-74
2020/12/22 05:27:44;;;;;;;5.90;2.90;;;12.00;87.30;;;;;;5008188;28;20121;-74
2020/12/22 05:30:10;;;;;;;2.78;2.28;;;12.00;87.30;;;;;;5009286;28;20026;-74
2020/12/22 05:32:36;;;;;;;4.20;2.20;;;12.00;87.30;;;;;;5008626;28;20405;-74
2020/12/22 05:35:02;;;;;;;4.28;2.80;;;12.00;87.30;;;;;;5007861;28;20030;-74
2020/12/22 05:37:28;;;;;;;4.15;2.60;;;12.00;87.30;;;;;;5007501;28;20097;-74
2020/12/22 05:39:54;;;;;;;9.57;2.90;;;12.00;87.30;;;;;;5007992;28;20407;-74
2020/12/22 05:42:20;;;;;;;4.53;2.58;;;12.00;87.30;;;;;;5009186;28;20338;-74
2020/12/22 05:44:52;;;;;;;4.78;2.95;;;11.90;87.10;;;;;;5008065;28;20073;-74
2020/12/22 05:47:20;;;;;;;3.67;2.22;;;11.90;87.10;;;;;;5003656;28;20097;-74
2020/12/22 05:50:05;;;;;;;3.97;2.40;;;11.90;87.10;;;;;;4986704;28;20582;-75
2020/12/22 05:52:31;;;;;;;4.32;2.92;;;11.90;87.10;;;;;;4986834;28;20552;-75
2020/12/22 05:54:59;;;;;;;4.43;2.92;;;11.80;87.00;;;;;;4986608;28;20119;-74
2020/12/22 05:57:27;;;;;;;4.07;2.78;;;11.80;87.00;;;;;;4988644;28;20102;-75
2020/12/22 05:59:55;;;;;;;3.92;2.88;;;11.80;87.00;;;;;;5009212;28;20389;-74
2020/12/22 06:02:31;;;;;;;5.07;2.65;;;11.80;87.10;;;;;;5008510;28;20091;-74
2020/12/22 06:05:02;;;;;;;5.07;2.95;;;11.80;87.10;;;;;;5009477;28;20046;-72
2020/12/22 06:07:29;;;;;;;6.90;3.17;;;11.70;86.90;;;;;;5009515;28;20497;-73
2020/12/22 06:09:57;;;;;;;3.10;2.75;;;11.70;87.00;;;;;;5008580;28;20033;-74
2020/12/22 06:12:24;;;;;;;6.13;3.35;;;11.70;87.00;;;;;;5008509;28;20060;-74
2020/12/22 06:14:54;;;;;;;4.45;3.22;;;11.70;87.10;;;;;;5007583;28;20112;-78
2020/12/22 06:17:22;;;;;;;3.47;3.10;;;11.70;87.10;;;;;;4991055;28;20053;-75
2020/12/22 06:19:48;;;;;;;4.22;3.00;;;11.70;87.10;;;;;;5007487;28;20109;-77
2020/12/22 06:22:16;;;;;;;5.15;3.42;;;11.70;87.10;;;;;;5007058;28;20037;-74
2020/12/22 06:24:42;;;;;;;5.82;3.50;;;11.70;87.10;;;;;;5006541;28;20042;-75
2020/12/22 06:27:11;;;;;;;9.10;3.92;;;11.70;87.20;;;;;;5007842;28;20038;-75
2020/12/22 06:29:42;;;;;;;8.18;3.85;;;11.70;87.20;;;;;;5007266;28;20061;-76
2020/12/22 06:32:17;;;;;;;6.60;3.58;;;11.70;87.20;;;;;;4990796;28;20026;-75
2020/12/22 06:34:46;;;;;;;8.13;3.92;;;11.70;87.30;;;;;;5007268;28;20439;-74
2020/12/22 06:37:12;;;;;;;8.55;4.85;;;11.70;87.20;;;;;;5009088;28;20039;-75
2020/12/22 06:39:42;;;;;;;6.40;4.10;;;11.70;87.20;;;;;;5007241;28;20042;-75
2020/12/22 06:42:09;;;;;;;8.40;4.55;;;11.70;87.20;;;;;;4990361;28;20038;-75
2020/12/22 06:44:36;;;;;;;5.35;4.10;;;11.70;87.30;;;;;;5004302;28;20485;-74
2020/12/22 06:47:04;;;;;;;7.45;4.60;;;11.70;87.30;;;;;;5001007;28;20025;-77
2020/12/22 06:49:49;;;;;;;6.00;3.63;;;11.70;87.30;;;;;;5023497;28;20077;-76
2020/12/22 06:52:34;;;;;;;9.85;4.18;;;11.70;87.30;;;;;;5007308;28;20042;-74
2020/12/22 06:55:06;;;;;;;6.72;4.53;;;11.70;87.30;;;;;;5005026;28;20022;-75
2020/12/22 06:57:43;;;;;;;5.47;4.07;;;11.70;87.30;;;;;;5008375;28;20044;-74
2020/12/22 07:00:31;;;;;;;5.00;4.20;;;11.60;87.20;;;;;;5005879;28;20068;-74
2020/12/22 07:03:25;;;;;;;5.15;4.35;;;11.60;87.20;;;;;;5023478;28;20401;-74
2020/12/22 07:05:51;;;;;;;6.70;4.80;;;11.60;87.20;;;;;;5004792;28;20442;-73
2020/12/22 07:08:18;;;;;;;4.95;4.45;;;11.60;87.20;;;;;;5022745;28;20036;-76
2020/12/22 07:10:49;;;;;;;8.32;4.78;;;11.60;87.20;;;;;;5006192;28;20070;-74
2020/12/22 07:13:19;;;;;;;12.55;4.57;;;11.60;87.30;;;;;;5007942;28;20075;-74
2020/12/22 07:15:49;;;;;;;7.95;4.72;;;11.60;87.40;;;;;;5006775;28;20164;-79
2020/12/22 07:18:15;;;;;;;10.07;5.22;;;11.60;87.40;;;;;;4974951;28;20093;-75
2020/12/22 07:20:43;;;;;;;7.15;5.45;;;11.70;87.60;;;;;;4990704;28;20144;-76
2020/12/22 07:23:10;;;;;;;11.13;5.03;;;11.70;87.60;;;;;;5006805;28;20242;-79
2020/12/22 07:25:38;;;;;;;8.55;5.80;;;11.70;87.50;;;;;;4990691;28;20564;-79
2020/12/22 07:28:10;;;;;;;8.27;5.30;;;11.70;87.50;;;;;;5003084;28;20057;-76
2020/12/22 07:30:36;;;;;;;9.75;5.13;;;11.70;87.50;;;;;;5007591;28;20079;-78
2020/12/22 07:33:03;;;;;;;8.82;4.53;;;11.70;87.50;;;;;;5023568;28;20029;-81
2020/12/22 07:35:30;;;;;;;6.90;5.05;;;11.70;87.50;;;;;;5007984;28;20037;-79
2020/12/22 07:38:10;;;;;;;7.60;4.53;;;11.70;87.50;;;;;;5008474;28;20496;-78
2020/12/22 07:40:37;;;;;;;5.53;5.00;;;11.70;87.60;;;;;;5008724;28;20058;-78
2020/12/22 07:43:08;;;;;;;8.82;4.70;;;11.70;87.50;;;;;;5008866;28;20442;-76
2020/12/22 07:45:35;;;;;;;6.50;4.70;;;11.60;87.40;;;;;;5006955;28;20434;-81
2020/12/22 07:48:07;;;;;;;9.73;4.65;;;11.60;87.40;;;;;;5006257;28;20344;-77
2020/12/22 07:50:33;;;;;;;8.57;4.68;;;11.60;87.40;;;;;;5006375;28;20376;-77
2020/12/22 07:52:59;;;;;;;6.35;3.97;;;11.60;87.40;;;;;;5005006;28;20088;-76
2020/12/22 07:55:26;;;;;;;6.20;4.43;;;11.60;87.40;;;;;;5007136;28;20037;-77
2020/12/22 07:57:53;;;;;;;8.18;4.70;;;11.60;87.50;;;;;;5005674;28;20057;-77
2020/12/22 08:00:20;;;;;;;7.18;4.57;;;11.60;87.50;;;;;;5005505;28;20125;-77
2020/12/22 08:02:46;;;;;;;9.98;5.07;;;11.50;87.30;;;;;;5007013;28;20037;-75
2020/12/22 08:05:14;;;;;;;10.57;4.50;;;11.60;87.50;;;;;;5007625;28;20589;-75
2020/12/22 08:07:42;;;;;;;8.13;4.75;;;11.60;87.60;;;;;;5021516;28;20061;-75
2020/12/22 08:10:12;;;;;;;6.53;4.47;;;11.50;87.40;;;;;;5007201;28;20398;-75
2020/12/22 08:12:39;;;;;;;9.95;4.57;;;11.50;87.40;;;;;;4989550;28;20045;-75
2020/12/22 08:15:10;;;;;;;8.20;5.07;;;11.60;87.60;;;;;;4989223;28;20535;-75
2020/12/22 08:17:41;;;;;;;8.43;4.85;;;11.50;87.50;;;;;;4988366;28;20381;-76
2020/12/22 08:20:08;;;;;;;7.13;4.68;;;11.50;87.40;;;;;;4989653;28;20045;-74
2020/12/22 08:22:36;;;;;;;13.05;5.18;;;11.50;87.40;;;;;;5006892;28;20438;-76
2020/12/22 08:25:04;;;;;;;8.98;5.05;;;11.50;87.40;;;;;;5007025;28;20025;-76
2020/12/22 08:27:31;;;;;;;6.93;4.30;;;11.50;87.40;;;;;;5005306;28;20430;-75
2020/12/22 08:29:58;;;;;;;9.48;5.25;;;11.50;87.40;;;;;;4993785;28;20383;-75
2020/12/22 08:32:25;;;;;;;6.32;4.95;;;11.50;87.40;;;;;;5004755;28;20393;-76
2020/12/22 08:34:53;;;;;;;11.27;5.47;;;11.40;87.70;;;;;;5005382;28;20033;-76
2020/12/22 08:37:26;;;;;;;8.40;5.15;;;11.50;87.40;;;;;;5005348;28;20465;-75
2020/12/22 08:39:53;;;;;;;11.30;5.90;;;11.50;87.50;;;;;;5019717;28;20049;-75
2020/12/22 08:42:20;;;;;;;10.90;6.38;;;11.40;87.30;;;;;;5021071;28;20029;-76
2020/12/22 08:44:51;;;;;;;10.25;5.80;;;11.40;87.30;;;;;;5004629;28;20108;-75
2020/12/22 08:47:19;;;;;;;8.25;5.55;;;11.40;87.30;;;;;;5005059;28;20039;-77
2020/12/22 08:49:46;;;;;;;7.38;4.75;;;11.40;87.30;;;;;;5004927;28;20044;-75
2020/12/22 08:52:15;;;;;;;8.13;5.85;;;11.40;87.40;;;;;;5005175;28;20487;-76
2020/12/22 08:54:46;;;;;;;7.40;5.38;;;11.40;87.40;;;;;;5004813;28;20369;-75
2020/12/22 08:57:18;;;;;;;8.82;5.45;;;11.40;88.00;;;;;;5021801;28;20030;-75
2020/12/22 08:59:45;;;;;;;6.93;4.82;;;11.40;87.50;;;;;;5004428;28;20145;-77
2020/12/22 09:02:41;;;;;;;9.98;5.28;;;11.40;87.50;;;;;;5006667;28;20346;-77
2020/12/22 09:05:14;;;;;;;7.82;5.85;;;11.40;87.50;;;;;;4993039;28;20056;-78
2020/12/22 09:07:41;;;;;;;8.80;5.47;;;11.50;87.70;;;;;;5004479;28;20030;-75
2020/12/22 09:10:08;;;;;;;6.60;5.13;;;11.50;87.60;;;;;;5004124;28;20327;-77
2020/12/22 09:12:34;;;;;;;10.23;6.38;;;11.50;87.60;;;;;;5006423;28;20026;-79
2020/12/22 09:15:00;;;;;;;17.23;6.47;;;11.50;87.60;;;;;;4988067;28;20037;-77
2020/12/22 09:17:31;;;;;;;12.38;6.15;;;11.50;87.80;;;;;;4987802;28;20026;-77
2020/12/22 09:19:57;;;;;;;8.70;6.47;;;11.60;88.00;;;;;;5005555;28;20046;-78
2020/12/22 09:22:26;;;;;;;9.07;5.72;;;11.70;88.10;;;;;;5006648;28;20037;-78
2020/12/22 09:24:52;;;;;;;8.20;5.15;;;11.70;88.00;;;;;;5004400;28;20474;-78
2020/12/22 09:27:39;;;;;;;11.07;5.85;;;11.80;88.10;;;;;;4988480;28;20164;-78
2020/12/22 09:30:14;;;;;;;8.13;5.78;;;11.80;88.10;;;;;;5008671;28;20045;-78
2020/12/22 09:32:41;;;;;;;6.90;5.10;;;11.90;88.20;;;;;;5009632;28;20578;-78
2020/12/22 09:35:08;;;;;;;9.18;5.88;;;11.90;88.20;;;;;;5010150;28;20168;-78
2020/12/22 09:37:34;;;;;;;9.65;5.43;;;11.90;88.20;;;;;;5009857;28;20022;-79
2020/12/22 09:40:00;;;;;;;5.35;4.85;;;11.90;88.20;;;;;;5009681;28;20076;-77
2020/12/22 09:42:27;;;;;;;9.32;5.32;;;11.90;88.10;;;;;;4991949;28;20030;-78
2020/12/22 09:44:53;;;;;;;10.57;5.15;;;12.00;88.30;;;;;;5008303;28;20030;-78
2020/12/22 09:47:19;;;;;;;14.65;5.95;;;12.00;88.20;;;;;;5009279;28;20121;-78
2020/12/22 09:49:46;;;;;;;8.82;5.15;;;12.00;88.20;;;;;;5008470;28;20061;-76
2020/12/22 09:52:12;;;;;;;8.65;5.20;;;12.10;88.40;;;;;;5008080;28;20054;-78
2020/12/22 09:54:38;;;;;;;7.75;5.10;;;12.10;88.40;;;;;;5008910;28;20037;-77
2020/12/22 09:57:04;;;;;;;11.20;4.95;;;12.00;88.20;;;;;;5009835;28;20029;-77
2020/12/22 09:59:30;;;;;;;6.65;4.28;;;12.10;88.40;;;;;;5007706;28;20124;-77
2020/12/22 10:02:00;;;;;;;6.22;4.95;;;12.10;88.30;;;;;;5007539;28;20038;-77
2020/12/22 10:04:27;;;;;;;6.57;4.68;;;12.10;88.30;;;;;;5009155;28;20148;-78
2020/12/22 10:06:53;;;;;;;6.13;5.07;;;12.10;88.30;;;;;;5007338;28;20037;-79
2020/12/22 10:09:19;;;;;;;5.53;4.20;;;12.10;88.30;;;;;;5008964;28;20032;-79
2020/12/22 10:11:45;;;;;;;8.88;5.65;;;12.20;88.50;;;;;;4991156;28;20201;-79
2020/12/22 10:14:11;;;;;;;6.60;4.25;;;12.20;88.50;;;;;;5008071;28;20034;-77
2020/12/22 10:16:37;;;;;;;6.47;5.07;;;12.30;88.60;;;;;;5008997;28;20128;-77
2020/12/22 10:19:04;;;;;;;7.30;4.15;;;12.30;88.50;;;;;;5009410;28;20131;-78
2020/12/22 10:21:30;;;;;;;5.68;4.15;;;12.30;88.50;;;;;;4990984;28;20040;-77
2020/12/22 10:23:59;;;;;;;5.88;4.70;;;12.40;88.60;;;;;;5007511;28;20026;-77
2020/12/22 10:26:26;;;;;;;4.45;4.03;;;12.40;88.50;;;;;;5008097;28;20041;-77
2020/12/22 10:28:53;;;;;;;4.72;3.95;;;12.40;88.50;;;;;;5008196;28;20026;-78
2020/12/22 10:31:20;;;;;;;5.82;4.55;;;12.50;88.60;;;;;;5007311;28;20367;-78
2020/12/22 10:33:47;;;;;;;8.02;4.97;;;12.50;88.50;;;;;;5021987;28;20076;-78
2020/12/22 10:36:18;;;;;;;7.43;4.50;;;12.60;88.60;;;;;;5024146;28;20088;-77
2020/12/22 10:38:44;;;;;;;5.97;4.10;;;12.60;88.50;;;;;;5006400;28;20030;-78
2020/12/22 10:41:10;;;;;;;9.10;4.72;;;12.60;88.50;;;;;;5008151;28;20038;-77
2020/12/22 10:43:37;;;;;;;4.85;4.15;;;12.60;88.40;;;;;;5006989;28;20597;-78
2020/12/22 10:46:03;;;;;;;8.85;4.93;;;12.60;88.30;;;;;;5023669;28;20033;-77
2020/12/22 10:48:30;;;;;;;5.13;4.00;;;12.70;88.50;;;;;;5008396;28;20041;-79
2020/12/22 10:50:57;;;;;;;6.13;3.80;;;12.70;88.50;;;;;;5007466;28;20040;-80
2020/12/22 10:53:24;;;;;;;7.20;4.30;;;12.70;88.40;;;;;;5008678;28;20037;-81
2020/12/22 10:55:50;;;;;;;5.78;4.60;;;12.70;88.40;;;;;;5008826;28;20453;-81
2020/12/22 10:58:16;;;;;;;6.07;4.28;;;12.70;88.30;;;;;;5007458;28;20068;-80
2020/12/22 11:00:42;;;;;;;7.80;4.05;;;12.70;88.30;;;;;;5008725;28;20069;-79
2020/12/22 11:03:12;;;;;;;5.53;4.13;;;12.70;88.30;;;;;;5008678;28;20446;-80
2020/12/22 11:08:23;;;;;;;5.30;3.92;;;12.70;88.30;;;;;;5008014;28;20061;-80
2020/12/22 11:10:50;;;;;;;6.88;3.55;;;12.80;88.40;;;;;;5007286;28;20058;-79
2020/12/22 11:13:16;;;;;;;6.00;4.25;;;12.80;88.40;;;;;;5008676;28;20049;-79
2020/12/22 11:15:44;;;;;;;6.13;3.85;;;12.80;88.40;;;;;;5008079;28;20025;-79
2020/12/22 11:18:10;;;;;;;5.60;3.67;;;12.80;88.30;;;;;;5006634;28;20060;-78
2020/12/22 11:20:36;;;;;;;6.53;4.15;;;12.80;88.30;;;;;;5007138;28;20038;-78
2020/12/22 11:23:03;;;;;;;6.57;3.65;;;12.80;88.30;;;;;;5006563;28;20528;-78
2020/12/22 11:25:29;;;;;;;8.48;4.20;;;12.90;88.40;;;;;;5006723;28;20042;-79
2020/12/22 11:27:55;;;;;;;5.20;3.97;;;12.90;88.30;;;;;;5006451;28;20451;-78
2020/12/22 11:30:21;;;;;;;6.00;3.90;;;12.90;88.30;;;;;;5006478;28;20026;-78
2020/12/22 11:32:47;;;;;;;5.03;3.78;;;12.90;88.20;;;;;;5008385;28;20022;-79
2020/12/22 11:35:14;;;;;;;5.38;3.47;;;12.90;88.20;;;;;;5006793;28;20098;-78
2020/12/22 11:37:40;;;;;;;3.85;3.35;;;12.90;88.20;;;;;;5007474;28;20038;-78
2020/12/22 11:40:06;;;;;;;5.75;3.78;;;13.00;88.30;;;;;;5006871;28;20495;-78
2020/12/22 11:42:33;;;;;;;6.20;3.92;;;12.90;88.00;;;;;;5008033;28;20087;-78
2020/12/22 11:44:59;;;;;;;6.65;4.45;;;12.90;88.00;;;;;;4990415;28;20350;-78
2020/12/22 11:47:25;;;;;;;10.45;3.50;;;13.00;88.10;;;;;;5006826;28;20026;-79
2020/12/22 11:49:51;;;;;;;6.85;3.95;;;12.90;87.90;;;;;;5007584;28;20523;-79
2020/12/22 11:52:18;;;;;;;5.15;3.58;;;12.90;87.90;;;;;;5006897;28;20038;-78
2020/12/22 11:54:44;;;;;;;7.78;4.40;;;12.90;87.80;;;;;;5006290;28;20030;-81
2020/12/22 11:57:10;;;;;;;5.55;4.22;;;12.90;87.90;;;;;;5007445;28;20563;-78
2020/12/22 11:59:36;;;;;;;5.57;3.80;;;13.00;88.00;;;;;;5005265;28;20144;-77
2020/12/22 12:02:04;;;;;;;5.90;3.97;;;12.90;87.80;;;;;;5005992;28;20121;-77
2020/12/22 12:04:30;;;;;;;6.47;4.60;;;13.00;88.00;;;;;;5005469;28;20037;-78
2020/12/22 12:06:56;;;;;;;7.03;4.40;;;12.90;87.80;;;;;;5006254;28;20030;-78
2020/12/22 12:09:22;;;;;;;5.95;4.30;;;13.00;87.90;;;;;;5005262;28;20103;-80
2020/12/22 12:11:49;;;;;;;8.55;4.75;;;13.00;87.90;;;;;;4992290;28;20393;-78
2020/12/22 12:14:17;;;;;;;5.55;4.65;;;13.00;87.80;;;;;;5009614;28;20030;-76
2020/12/22 12:16:49;;;;;;;6.07;5.10;;;13.00;88.30;;;;;;5007789;28;20032;-76
2020/12/22 12:19:16;;;;;;;7.97;5.20;;;13.00;87.80;;;;;;5006992;28;20108;-74
2020/12/22 12:21:42;;;;;;;8.38;5.00;;;13.00;87.70;;;;;;5006972;28;20105;-76
2020/12/22 12:24:09;;;;;;;9.32;5.85;;;13.00;87.70;;;;;;5005678;28;20121;-75
2020/12/22 12:26:35;;;;;;;5.95;4.65;;;13.00;87.60;;;;;;5007078;28;20030;-75
2020/12/22 12:29:03;;;;;;;5.88;5.28;;;13.10;87.80;;;;;;5007154;28;20037;-75
2020/12/22 12:31:30;;;;;;;5.10;4.60;;;13.00;87.60;;;;;;5005459;28;20088;-75
2020/12/22 12:33:58;;;;;;;6.40;5.35;;;13.00;87.50;;;;;;5006004;28;20083;-75
2020/12/22 12:36:24;;;;;;;5.82;5.18;;;13.00;87.50;;;;;;5006037;28;20435;-75
2020/12/22 12:38:50;;;;;;;8.32;5.63;;;13.00;87.50;;;;;;5005437;28;20048;-76
2020/12/22 12:41:16;;;;;;;8.40;5.47;;;13.00;87.40;;;;;;5006737;28;20080;-78
2020/12/22 12:43:42;;;;;;;6.22;5.20;;;13.00;87.40;;;;;;5006650;28;20034;-76
2020/12/22 12:46:09;;;;;;;6.45;5.25;;;13.00;87.40;;;;;;5005265;28;20030;-76
2020/12/22 12:48:36;;;;;;;9.40;5.75;;;13.00;87.30;;;;;;5005702;28;20125;-77
2020/12/22 12:51:05;;;;;;;7.43;4.78;;;13.00;87.30;;;;;;5005913;28;20034;-75